Romoe Maersk — OXLC2 — position and weather

sailwx.info

Track history (hours):
 
Tides and Currents Weather Stations Pressure Air Temp Water Temp Dewpoint Dewpoint Depression Visibility Wind Speed Wind Dir Waves Ship Positions

Romoe Maersk

Last reported at 2014-Jul-31 17:29 UTC. Time now 2014-Jul-31 17:37 UTC.
Position N 37°54' E 023°05'.

Length 171 m; draft 10.1 m.

Type: Ship. MMSI: 220209000.

Date/timePositionNaut miles runAvg speedWind from/ knotsBaromVisibWave heightAir tempDewpointWater temp
2014-Jul-31 17:29N 37°54' E 023°05'0 0.0
2014-Jul-31 16:28N 37°54' E 023°05'0 0.1
2014-Jul-31 15:33N 37°54' E 023°05'0 0.1
2014-Jul-31 14:25N 37°54' E 023°05'0 0.0
2014-Jul-31 12:05N 37°54' E 023°05'5 8.5
2014-Jul-31 11:33N 37°53' E 023°10'1211.9
2014-Jul-31 10:33N 37°51' E 023°25'1111.4
2014-Jul-31 09:33N 37°49' E 023°40'1211.8
2014-Jul-31 08:33N 37°38' E 023°45'1212.4
2014-Jul-31 07:33N 37°26' E 023°46'1312.7
2014-Jul-31 06:33N 37°13' E 023°46'1212.3
2014-Jul-31 05:33N 37°01' E 023°46'1211.7
2014-Jul-31 04:33N 36°49' E 023°44'1312.0
2014-Jul-31 03:27N 36°38' E 023°36'1112.1
2014-Jul-31 02:33N 36°29' E 023°29'1211.8
2014-Jul-31 01:33N 36°19' E 023°21'1211.7
2014-Jul-31 00:33N 36°08' E 023°14'37412.0
2014-Jul-29 17:22N 36°17' E 015°31'1312.3
2014-Jul-29 16:20N 36°18' E 015°15'912.0
2014-Jul-29 15:33N 36°18' E 015°04'1212.1
2014-Jul-29 14:33N 36°19' E 014°49'1212.1
2014-Jul-29 13:33N 36°19' E 014°34'1212.0
2014-Jul-29 12:33N 36°20' E 014°19'1212.2
2014-Jul-29 11:33N 36°23' E 014°04'1212.3
2014-Jul-29 10:33N 36°28' E 013°50'1212.3
2014-Jul-29 09:33N 36°33' E 013°36'1412.3
2014-Jul-29 08:24N 36°38' E 013°20'1112.8
2014-Jul-29 07:33N 36°43' E 013°07'1212.2
2014-Jul-29 06:33N 36°48' E 012°53'1212.2
2014-Jul-29 05:33N 36°52' E 012°39'1212.4
2014-Jul-29 04:33N 36°56' E 012°25'9912.2
2014-Jul-28 20:28N 37°32' E 010°29'1212.7
2014-Jul-28 19:31N 37°34' E 010°14'6112.3
2014-Jul-28 14:32N 37°21' E 008°59'8612.0
2014-Jul-28 07:25N 37°19' E 007°11'1512.0
2014-Jul-28 06:09N 37°19' E 006°52'1013.0
2014-Jul-28 05:24N 37°19' E 006°40'4511.7
2014-Jul-28 01:33N 37°20' E 005°43'1211.6
2014-Jul-28 00:33N 37°19' E 005°29'5611.3
2014-Jul-27 19:33N 37°19' E 004°18'1511.0
2014-Jul-27 18:11N 37°19' E 003°59'46112.2
2014-Jul-26 04:27N 35°57' W 005°27'7410.8
2014-Jul-25 21:33N 36°31' W 006°49'1312.4
2014-Jul-25 20:33N 36°44' W 006°49'  
2014-Jul-23 15:32N 36°43' W 006°55'1212.7
2014-Jul-23 14:33N 36°33' W 007°03'1412.5
2014-Jul-23 13:27N 36°21' W 007°12'1312.5
2014-Jul-23 12:24N 36°09' W 007°21'2312.2
2014-Jul-23 10:29N 35°50' W 007°38'1112.2
2014-Jul-23 09:33N 35°41' W 007°45'1611.9
2014-Jul-23 08:14N 35°28' W 007°56'812.0
2014-Jul-23 07:32N 35°21' W 008°02'3811.7
2014-Jul-23 04:19N 34°49' W 008°27'  
Track history (hours):
 
Tides and Currents Weather Stations Pressure Air Temp Water Temp Dewpoint Dewpoint Depression Visibility Wind Speed Wind Dir Waves Ship Positions

Romoe Maersk

Last reported at 2014-Jul-31 17:29 UTC. Time now 2014-Jul-31 17:37 UTC.
Position N 37°54' E 023°05'.

Length 171 m; draft 10.1 m.

Type: Ship. MMSI: 220209000.

Date/timePositionNaut miles runAvg speedWind from/ knotsBaromVisibWave heightAir tempDewpointWater temp
2014-Jul-31 17:29N 37°54' E 023°05'0 0.0
2014-Jul-31 16:28N 37°54' E 023°05'0 0.1
2014-Jul-31 15:33N 37°54' E 023°05'0 0.1
2014-Jul-31 14:25N 37°54' E 023°05'0 0.0
2014-Jul-31 12:05N 37°54' E 023°05'5 8.5
2014-Jul-31 11:33N 37°53' E 023°10'1211.9
2014-Jul-31 10:33N 37°51' E 023°25'1111.4
2014-Jul-31 09:33N 37°49' E 023°40'1211.8
2014-Jul-31 08:33N 37°38' E 023°45'1212.4
2014-Jul-31 07:33N 37°26' E 023°46'1312.7
2014-Jul-31 06:33N 37°13' E 023°46'1212.3
2014-Jul-31 05:33N 37°01' E 023°46'1211.7
2014-Jul-31 04:33N 36°49' E 023°44'1312.0
2014-Jul-31 03:27N 36°38' E 023°36'1112.1
2014-Jul-31 02:33N 36°29' E 023°29'1211.8
2014-Jul-31 01:33N 36°19' E 023°21'1211.7
2014-Jul-31 00:33N 36°08' E 023°14'37412.0
2014-Jul-29 17:22N 36°17' E 015°31'1312.3
2014-Jul-29 16:20N 36°18' E 015°15'912.0
2014-Jul-29 15:33N 36°18' E 015°04'1212.1
2014-Jul-29 14:33N 36°19' E 014°49'1212.1
2014-Jul-29 13:33N 36°19' E 014°34'1212.0
2014-Jul-29 12:33N 36°20' E 014°19'1212.2
2014-Jul-29 11:33N 36°23' E 014°04'1212.3
2014-Jul-29 10:33N 36°28' E 013°50'1212.3
2014-Jul-29 09:33N 36°33' E 013°36'1412.3
2014-Jul-29 08:24N 36°38' E 013°20'1112.8
2014-Jul-29 07:33N 36°43' E 013°07'1212.2
2014-Jul-29 06:33N 36°48' E 012°53'1212.2
2014-Jul-29 05:33N 36°52' E 012°39'1212.4
2014-Jul-29 04:33N 36°56' E 012°25'9912.2
2014-Jul-28 20:28N 37°32' E 010°29'1212.7
2014-Jul-28 19:31N 37°34' E 010°14'6112.3
2014-Jul-28 14:32N 37°21' E 008°59'8612.0
2014-Jul-28 07:25N 37°19' E 007°11'1512.0
2014-Jul-28 06:09N 37°19' E 006°52'1013.0
2014-Jul-28 05:24N 37°19' E 006°40'4511.7
2014-Jul-28 01:33N 37°20' E 005°43'1211.6
2014-Jul-28 00:33N 37°19' E 005°29'5611.3
2014-Jul-27 19:33N 37°19' E 004°18'1511.0
2014-Jul-27 18:11N 37°19' E 003°59'46112.2
2014-Jul-26 04:27N 35°57' W 005°27'7410.8
2014-Jul-25 21:33N 36°31' W 006°49'1312.4
2014-Jul-25 20:33N 36°44' W 006°49'  
2014-Jul-23 15:32N 36°43' W 006°55'1212.7
2014-Jul-23 14:33N 36°33' W 007°03'1412.5
2014-Jul-23 13:27N 36°21' W 007°12'1312.5
2014-Jul-23 12:24N 36°09' W 007°21'2312.2
2014-Jul-23 10:29N 35°50' W 007°38'1112.2
2014-Jul-23 09:33N 35°41' W 007°45'1611.9
2014-Jul-23 08:14N 35°28' W 007°56'812.0
2014-Jul-23 07:32N 35°21' W 008°02'3811.7
2014-Jul-23 04:19N 34°49' W 008°27'  

Dump ship's entire track history